sensor_id;sensor_type;location;lat;lon;timestamp;pressure;altitude;pressure_sealevel;temperature;humidity
72857;BME280;61360;52.134;4.494;2022-07-19T00:00:42;101904.66;;;21.03;62.22
72857;BME280;61360;52.134;4.494;2022-07-19T00:03:14;101905.31;;;20.88;62.27
72857;BME280;61360;52.134;4.494;2022-07-19T00:05:43;101904.75;;;20.80;62.74
72857;BME280;61360;52.134;4.494;2022-07-19T00:08:10;101908.63;;;20.72;62.43
72857;BME280;61360;52.134;4.494;2022-07-19T00:10:37;101908.75;;;20.69;62.38
72857;BME280;61360;52.134;4.494;2022-07-19T00:13:03;101896.47;;;20.65;62.50
72857;BME280;61360;52.134;4.494;2022-07-19T00:15:30;101905.38;;;20.64;62.20
72857;BME280;61360;52.134;4.494;2022-07-19T00:17:56;101896.56;;;20.62;61.63
72857;BME280;61360;52.134;4.494;2022-07-19T00:20:23;101905.47;;;20.61;61.69
72857;BME280;61360;52.134;4.494;2022-07-19T00:22:50;101902.81;;;20.61;62.12
72857;BME280;61360;52.134;4.494;2022-07-19T00:25:16;101900.41;;;20.55;62.86
72857;BME280;61360;52.134;4.494;2022-07-19T00:27:43;101902.31;;;20.51;62.77
72857;BME280;61360;52.134;4.494;2022-07-19T00:30:10;101897.91;;;20.50;62.04
72857;BME280;61360;52.134;4.494;2022-07-19T00:32:37;101899.03;;;20.45;62.50
72857;BME280;61360;52.134;4.494;2022-07-19T00:35:04;101894.66;;;20.42;62.68
72857;BME280;61360;52.134;4.494;2022-07-19T00:37:32;101889.56;;;20.36;63.26
72857;BME280;61360;52.134;4.494;2022-07-19T00:39:58;101894.84;;;20.37;63.51
72857;BME280;61360;52.134;4.494;2022-07-19T00:42:25;101894.31;;;20.29;63.56
72857;BME280;61360;52.134;4.494;2022-07-19T00:44:51;101898.00;;;20.25;63.55
72857;BME280;61360;52.134;4.494;2022-07-19T00:47:19;101897.25;;;20.22;64.12
72857;BME280;61360;52.134;4.494;2022-07-19T00:49:46;101901.84;;;20.18;63.68
72857;BME280;61360;52.134;4.494;2022-07-19T00:52:13;101904.63;;;20.15;64.17
72857;BME280;61360;52.134;4.494;2022-07-19T00:54:43;101895.81;;;20.13;63.95
72857;BME280;61360;52.134;4.494;2022-07-19T00:57:10;101903.81;;;20.13;63.18
72857;BME280;61360;52.134;4.494;2022-07-19T00:59:40;101899.28;;;20.15;63.60
72857;BME280;61360;52.134;4.494;2022-07-19T01:02:11;101901.00;;;20.17;64.03
72857;BME280;61360;52.134;4.494;2022-07-19T01:04:39;101902.06;;;20.12;64.12
72857;BME280;61360;52.134;4.494;2022-07-19T01:07:06;101895.94;;;20.10;65.40
72857;BME280;61360;52.134;4.494;2022-07-19T01:09:36;101893.38;;;20.07;64.82
72857;BME280;61360;52.134;4.494;2022-07-19T01:12:04;101898.78;;;20.05;65.40
72857;BME280;61360;52.134;4.494;2022-07-19T01:14:32;101890.97;;;20.01;65.69
72857;BME280;61360;52.134;4.494;2022-07-19T01:17:02;101897.34;;;19.96;65.64
72857;BME280;61360;52.134;4.494;2022-07-19T01:19:30;101892.25;;;19.90;65.90
72857;BME280;61360;52.134;4.494;2022-07-19T01:21:56;101884.41;;;19.86;65.63
72857;BME280;61360;52.134;4.494;2022-07-19T01:24:23;101882.75;;;19.83;65.80
72857;BME280;61360;52.134;4.494;2022-07-19T01:26:49;101882.91;;;19.78;65.44
72857;BME280;61360;52.134;4.494;2022-07-19T01:29:16;101885.41;;;19.83;65.37
72857;BME280;61360;52.134;4.494;2022-07-19T01:31:43;101884.47;;;19.84;65.93
72857;BME280;61360;52.134;4.494;2022-07-19T01:34:10;101874.84;;;19.80;65.94
72857;BME280;61360;52.134;4.494;2022-07-19T01:36:36;101874.19;;;19.73;65.58
72857;BME280;61360;52.134;4.494;2022-07-19T01:39:03;101876.91;;;19.72;65.48
72857;BME280;61360;52.134;4.494;2022-07-19T01:41:29;101876.16;;;19.68;65.71
72857;BME280;61360;52.134;4.494;2022-07-19T01:43:56;101885.16;;;19.64;64.71
72857;BME280;61360;52.134;4.494;2022-07-19T01:46:22;101884.59;;;19.56;65.51
72857;BME280;61360;52.134;4.494;2022-07-19T01:48:49;101890.00;;;19.54;65.56
72857;BME280;61360;52.134;4.494;2022-07-19T01:51:15;101885.72;;;19.49;65.72
72857;BME280;61360;52.134;4.494;2022-07-19T01:53:42;101888.59;;;19.44;66.35
72857;BME280;61360;52.134;4.494;2022-07-19T01:56:08;101876.38;;;19.37;66.26
72857;BME280;61360;52.134;4.494;2022-07-19T01:58:35;101874.75;;;19.33;66.49
72857;BME280;61360;52.134;4.494;2022-07-19T02:01:01;101879.28;;;19.31;66.56
72857;BME280;61360;52.134;4.494;2022-07-19T02:03:28;101868.66;;;19.29;66.75
72857;BME280;61360;52.134;4.494;2022-07-19T02:05:55;101874.97;;;19.27;66.36
72857;BME280;61360;52.134;4.494;2022-07-19T02:08:21;101866.22;;;19.23;67.09
72857;BME280;61360;52.134;4.494;2022-07-19T02:10:49;101871.34;;;19.29;67.10
72857;BME280;61360;52.134;4.494;2022-07-19T02:13:15;101864.44;;;19.23;66.35
72857;BME280;61360;52.134;4.494;2022-07-19T02:15:41;101862.13;;;19.13;66.85
72857;BME280;61360;52.134;4.494;2022-07-19T02:18:08;101864.84;;;19.11;66.75
72857;BME280;61360;52.134;4.494;2022-07-19T02:20:34;101865.97;;;19.04;67.13
72857;BME280;61360;52.134;4.494;2022-07-19T02:23:01;101866.84;;;19.04;66.87
72857;BME280;61360;52.134;4.494;2022-07-19T02:25:27;101865.97;;;19.04;66.45
72857;BME280;61360;52.134;4.494;2022-07-19T02:27:54;101862.63;;;18.99;66.73
72857;BME280;61360;52.134;4.494;2022-07-19T02:30:20;101854.66;;;18.97;66.40
72857;BME280;61360;52.134;4.494;2022-07-19T02:32:47;101864.56;;;18.94;67.03
72857;BME280;61360;52.134;4.494;2022-07-19T02:35:13;101864.66;;;18.91;67.41
72857;BME280;61360;52.134;4.494;2022-07-19T02:37:41;101864.00;;;18.84;67.96
72857;BME280;61360;52.134;4.494;2022-07-19T02:40:08;101871.13;;;18.82;67.58
72857;BME280;61360;52.134;4.494;2022-07-19T02:42:35;101873.09;;;18.77;68.24
72857;BME280;61360;52.134;4.494;2022-07-19T02:45:02;101867.09;;;18.70;67.78
72857;BME280;61360;52.134;4.494;2022-07-19T02:47:30;101871.56;;;18.69;67.51
72857;BME280;61360;52.134;4.494;2022-07-19T02:49:56;101866.41;;;18.63;68.17
72857;BME280;61360;52.134;4.494;2022-07-19T02:52:23;101858.44;;;18.63;68.38
72857;BME280;61360;52.134;4.494;2022-07-19T02:54:49;101858.50;;;18.62;68.27
72857;BME280;61360;52.134;4.494;2022-07-19T02:57:16;101857.66;;;18.60;67.90
72857;BME280;61360;52.134;4.494;2022-07-19T02:59:43;101857.78;;;18.57;68.39
72857;BME280;61360;52.134;4.494;2022-07-19T03:02:09;101858.72;;;18.56;68.27
72857;BME280;61360;52.134;4.494;2022-07-19T03:04:36;101858.03;;;18.49;68.41
72857;BME280;61360;52.134;4.494;2022-07-19T03:07:02;101866.06;;;18.47;68.31
72857;BME280;61360;52.134;4.494;2022-07-19T03:09:28;101858.06;;;18.47;68.51
72857;BME280;61360;52.134;4.494;2022-07-19T03:11:55;101861.72;;;18.45;68.58
72857;BME280;61360;52.134;4.494;2022-07-19T03:14:21;101857.34;;;18.42;68.63
72857;BME280;61360;52.134;4.494;2022-07-19T03:16:48;101853.88;;;18.40;68.32
72857;BME280;61360;52.134;4.494;2022-07-19T03:19:14;101854.78;;;18.39;68.21
72857;BME280;61360;52.134;4.494;2022-07-19T03:21:41;101852.22;;;18.36;69.46
72857;BME280;61360;52.134;4.494;2022-07-19T03:24:07;101842.59;;;18.32;69.46
72857;BME280;61360;52.134;4.494;2022-07-19T03:26:34;101840.84;;;18.31;69.00
72857;BME280;61360;52.134;4.494;2022-07-19T03:29:00;101846.16;;;18.31;69.02
72857;BME280;61360;52.134;4.494;2022-07-19T03:31:27;101847.16;;;18.28;69.16
72857;BME280;61360;52.134;4.494;2022-07-19T03:33:53;101847.88;;;18.34;70.12
72857;BME280;61360;52.134;4.494;2022-07-19T03:36:20;101853.88;;;18.40;69.82
72857;BME280;61360;52.134;4.494;2022-07-19T03:38:46;101846.84;;;18.38;68.95
72857;BME280;61360;52.134;4.494;2022-07-19T03:41:13;101847.03;;;18.33;69.85
72857;BME280;61360;52.134;4.494;2022-07-19T03:43:39;101840.75;;;18.34;68.60
72857;BME280;61360;52.134;4.494;2022-07-19T03:46:06;101846.81;;;18.39;69.72
72857;BME280;61360;52.134;4.494;2022-07-19T03:48:32;101840.84;;;18.31;69.59
72857;BME280;61360;52.134;4.494;2022-07-19T03:50:59;101854.31;;;18.26;69.51
72857;BME280;61360;52.134;4.494;2022-07-19T03:53:26;101851.78;;;18.22;69.38
72857;BME280;61360;52.134;4.494;2022-07-19T03:55:52;101844.84;;;18.18;69.71
72857;BME280;61360;52.134;4.494;2022-07-19T03:58:18;101848.41;;;18.17;70.20
72857;BME280;61360;52.134;4.494;2022-07-19T04:00:45;101851.13;;;18.15;69.34
72857;BME280;61360;52.134;4.494;2022-07-19T04:03:12;101851.97;;;18.16;70.00
72857;BME280;61360;52.134;4.494;2022-07-19T04:05:39;101847.50;;;18.18;69.56
72857;BME280;61360;52.134;4.494;2022-07-19T04:08:05;101850.25;;;18.15;69.85
72857;BME280;61360;52.134;4.494;2022-07-19T04:10:32;101848.41;;;18.17;69.20
72857;BME280;61360;52.134;4.494;2022-07-19T04:12:58;101847.50;;;18.18;70.13
72857;BME280;61360;52.134;4.494;2022-07-19T04:15:25;101843.94;;;18.17;69.87
72857;BME280;61360;52.134;4.494;2022-07-19T04:17:51;101840.38;;;18.18;69.86
72857;BME280;61360;52.134;4.494;2022-07-19T04:20:18;101840.34;;;18.20;69.33
72857;BME280;61360;52.134;4.494;2022-07-19T04:22:44;101840.25;;;18.23;68.93
72857;BME280;61360;52.134;4.494;2022-07-19T04:25:11;101844.63;;;18.24;69.78
72857;BME280;61360;52.134;4.494;2022-07-19T04:27:37;101840.97;;;18.28;69.70
72857;BME280;61360;52.134;4.494;2022-07-19T04:30:05;101846.34;;;18.26;70.70
72857;BME280;61360;52.134;4.494;2022-07-19T04:32:32;101843.50;;;18.31;71.18
72857;BME280;61360;52.134;4.494;2022-07-19T04:35:00;101845.16;;;18.35;70.52
72857;BME280;61360;52.134;4.494;2022-07-19T04:37:27;101844.22;;;18.36;70.86
72857;BME280;61360;52.134;4.494;2022-07-19T04:39:54;101845.06;;;18.38;70.20
72857;BME280;61360;52.134;4.494;2022-07-19T04:42:21;101850.81;;;18.53;71.63
72857;BME280;61360;52.134;4.494;2022-07-19T04:44:47;101853.28;;;18.59;71.12
72857;BME280;61360;52.134;4.494;2022-07-19T04:47:14;101846.72;;;18.69;71.64
72857;BME280;61360;52.134;4.494;2022-07-19T04:49:40;101843.03;;;18.73;70.42
72857;BME280;61360;52.134;4.494;2022-07-19T04:52:07;101847.16;;;18.82;70.74
72857;BME280;61360;52.134;4.494;2022-07-19T04:54:33;101853.59;;;19.03;70.88
72857;BME280;61360;52.134;4.494;2022-07-19T04:57:00;101842.94;;;19.03;70.38
72857;BME280;61360;52.134;4.494;2022-07-19T04:59:26;101844.94;;;19.21;69.46
72857;BME280;61360;52.134;4.494;2022-07-19T05:01:53;101847.44;;;19.51;67.36
72857;BME280;61360;52.134;4.494;2022-07-19T05:04:20;101837.41;;;20.05;66.43
72857;BME280;61360;52.134;4.494;2022-07-19T05:06:47;101848.59;;;20.37;66.47
72857;BME280;61360;52.134;4.494;2022-07-19T05:09:15;101850.53;;;20.98;65.72
72857;BME280;61360;52.134;4.494;2022-07-19T05:11:42;101837.72;;;21.47;65.78
72857;BME280;61360;52.134;4.494;2022-07-19T05:14:09;101840.31;;;22.06;63.82
72857;BME280;61360;52.134;4.494;2022-07-19T05:16:35;101838.75;;;22.57;62.52
72857;BME280;61360;52.134;4.494;2022-07-19T05:19:02;101836.72;;;22.97;61.83
72857;BME280;61360;52.134;4.494;2022-07-19T05:21:28;101831.16;;;23.36;59.95
72857;BME280;61360;52.134;4.494;2022-07-19T05:23:55;101832.63;;;23.75;57.83
72857;BME280;61360;52.134;4.494;2022-07-19T05:26:21;101832.16;;;24.16;57.38
72857;BME280;61360;52.134;4.494;2022-07-19T05:28:48;101840.88;;;24.51;57.83
72857;BME280;61360;52.134;4.494;2022-07-19T05:31:15;101831.47;;;24.89;56.63
72857;BME280;61360;52.134;4.494;2022-07-19T05:33:41;101833.06;;;25.07;55.73
72857;BME280;61360;52.134;4.494;2022-07-19T05:36:08;101837.34;;;25.26;53.74
72857;BME280;61360;52.134;4.494;2022-07-19T05:38:38;101831.38;;;25.64;54.07
72857;BME280;61360;52.134;4.494;2022-07-19T05:41:06;101834.16;;;25.76;53.30
72857;BME280;61360;52.134;4.494;2022-07-19T05:43:34;101834.81;;;26.09;52.52
72857;BME280;61360;52.134;4.494;2022-07-19T05:46:03;101826.66;;;26.23;51.92
72857;BME280;61360;52.134;4.494;2022-07-19T05:48:30;101834.63;;;26.66;50.48
72857;BME280;61360;52.134;4.494;2022-07-19T05:50:58;101824.19;;;27.00;49.58
72857;BME280;61360;52.134;4.494;2022-07-19T05:53:25;101821.06;;;27.19;51.43
72857;BME280;61360;52.134;4.494;2022-07-19T05:55:53;101827.44;;;27.31;49.07
72857;BME280;61360;52.134;4.494;2022-07-19T05:58:20;101822.38;;;28.02;49.31
72857;BME280;61360;52.134;4.494;2022-07-19T06:00:48;101815.75;;;28.06;48.51
72857;BME280;61360;52.134;4.494;2022-07-19T06:03:33;101812.38;;;28.15;47.27
72857;BME280;61360;52.134;4.494;2022-07-19T06:06:00;101807.25;;;28.48;46.89
72857;BME280;61360;52.134;4.494;2022-07-19T06:08:27;101815.31;;;28.36;47.90
72857;BME280;61360;52.134;4.494;2022-07-19T06:10:53;101823.34;;;28.49;47.54
72857;BME280;61360;52.134;4.494;2022-07-19T06:13:20;101813.06;;;28.54;48.34
72857;BME280;61360;52.134;4.494;2022-07-19T06:15:47;101822.22;;;28.76;48.80
72857;BME280;61360;52.134;4.494;2022-07-19T06:18:13;101811.97;;;29.15;47.20
72857;BME280;61360;52.134;4.494;2022-07-19T06:20:40;101819.41;;;29.47;46.48
72857;BME280;61360;52.134;4.494;2022-07-19T06:23:06;101816.72;;;29.47;46.44
72857;BME280;61360;52.134;4.494;2022-07-19T06:25:33;101815.34;;;29.53;44.99
72857;BME280;61360;52.134;4.494;2022-07-19T06:27:59;101821.75;;;29.29;45.71
72857;BME280;61360;52.134;4.494;2022-07-19T06:30:26;101828.44;;;30.14;44.52
72857;BME280;61360;52.134;4.494;2022-07-19T06:32:53;101817.44;;;29.83;45.25
72857;BME280;61360;52.134;4.494;2022-07-19T06:35:19;101829.88;;;30.29;44.58
72857;BME280;61360;52.134;4.494;2022-07-19T06:37:46;101823.41;;;30.74;43.48
72857;BME280;61360;52.134;4.494;2022-07-19T06:40:12;101825.53;;;30.91;42.51
72857;BME280;61360;52.134;4.494;2022-07-19T06:42:39;101819.03;;;31.25;43.28
72857;BME280;61360;52.134;4.494;2022-07-19T06:45:06;101821.09;;;31.42;42.29
72857;BME280;61360;52.134;4.494;2022-07-19T06:47:33;101823.38;;;31.37;43.15
72857;BME280;61360;52.134;4.494;2022-07-19T06:49:59;101817.09;;;31.06;43.74
72857;BME280;61360;52.134;4.494;2022-07-19T06:52:26;101824.97;;;31.09;43.66
72857;BME280;61360;52.134;4.494;2022-07-19T06:54:52;101815.63;;;31.32;43.95
72857;BME280;61360;52.134;4.494;2022-07-19T06:57:19;101821.25;;;30.89;43.61
72857;BME280;61360;52.134;4.494;2022-07-19T06:59:45;101815.94;;;31.39;41.98
72857;BME280;61360;52.134;4.494;2022-07-19T07:02:12;101816.53;;;31.43;43.41
72857;BME280;61360;52.134;4.494;2022-07-19T07:04:38;101813.69;;;31.85;40.99
72857;BME280;61360;52.134;4.494;2022-07-19T07:07:05;101806.03;;;32.10;42.82
72857;BME280;61360;52.134;4.494;2022-07-19T07:09:31;101797.19;;;32.27;39.85
72857;BME280;61360;52.134;4.494;2022-07-19T07:11:58;101793.44;;;32.48;39.23
72857;BME280;61360;52.134;4.494;2022-07-19T07:14:24;101795.75;;;32.42;37.34
72857;BME280;61360;52.134;4.494;2022-07-19T07:16:51;101793.72;;;32.44;37.80
72857;BME280;61360;52.134;4.494;2022-07-19T07:19:17;101794.75;;;32.63;36.84
72857;BME280;61360;52.134;4.494;2022-07-19T07:21:44;101794.56;;;32.84;37.44
72857;BME280;61360;52.134;4.494;2022-07-19T07:24:12;101789.91;;;33.04;37.12
72857;BME280;61360;52.134;4.494;2022-07-19T07:26:39;101787.34;;;32.93;40.02
72857;BME280;61360;52.134;4.494;2022-07-19T07:29:05;101789.66;;;32.97;39.77
72857;BME280;61360;52.134;4.494;2022-07-19T07:31:32;101782.63;;;32.95;40.14
72857;BME280;61360;52.134;4.494;2022-07-19T07:33:58;101785.31;;;33.14;38.27
72857;BME280;61360;52.134;4.494;2022-07-19T07:36:25;101773.09;;;33.46;34.70
72857;BME280;61360;52.134;4.494;2022-07-19T07:38:51;101773.84;;;33.48;37.80
72857;BME280;61360;52.134;4.494;2022-07-19T07:41:18;101780.81;;;33.33;34.92
72857;BME280;61360;52.134;4.494;2022-07-19T07:43:44;101777.56;;;33.47;32.81
72857;BME280;61360;52.134;4.494;2022-07-19T07:46:11;101771.66;;;33.52;34.73
72857;BME280;61360;52.134;4.494;2022-07-19T07:48:37;101780.53;;;33.82;36.70
72857;BME280;61360;52.134;4.494;2022-07-19T07:51:04;101777.31;;;33.68;35.99
72857;BME280;61360;52.134;4.494;2022-07-19T07:53:31;101771.19;;;34.02;36.07
72857;BME280;61360;52.134;4.494;2022-07-19T07:55:57;101776.75;;;34.10;37.13
72857;BME280;61360;52.134;4.494;2022-07-19T07:58:24;101779.16;;;34.50;33.94
72857;BME280;61360;52.134;4.494;2022-07-19T08:00:50;101782.63;;;34.34;37.90
72857;BME280;61360;52.134;4.494;2022-07-19T08:03:17;101777.00;;;34.79;35.21
72857;BME280;61360;52.134;4.494;2022-07-19T08:05:43;101778.41;;;34.83;34.69
72857;BME280;61360;52.134;4.494;2022-07-19T08:08:14;101773.56;;;34.77;32.99
72857;BME280;61360;52.134;4.494;2022-07-19T08:10:40;101776.16;;;34.79;34.72
72857;BME280;61360;52.134;4.494;2022-07-19T08:13:08;101773.22;;;34.72;32.98
72857;BME280;61360;52.134;4.494;2022-07-19T08:15:36;101764.53;;;34.59;36.08
72857;BME280;61360;52.134;4.494;2022-07-19T08:18:04;101760.41;;;34.99;34.41
72857;BME280;61360;52.134;4.494;2022-07-19T08:20:31;101760.72;;;34.70;34.08
72857;BME280;61360;52.134;4.494;2022-07-19T08:22:57;101761.59;;;34.52;32.19
72857;BME280;61360;52.134;4.494;2022-07-19T08:25:24;101750.03;;;34.76;34.05
72857;BME280;61360;52.134;4.494;2022-07-19T08:27:50;101749.72;;;35.14;31.36
72857;BME280;61360;52.134;4.494;2022-07-19T08:30:17;101755.50;;;35.11;33.49
72857;BME280;61360;52.134;4.494;2022-07-19T08:32:43;101752.69;;;35.29;33.99
72857;BME280;61360;52.134;4.494;2022-07-19T08:35:10;101753.31;;;35.14;32.57
72857;BME280;61360;52.134;4.494;2022-07-19T08:37:37;101745.09;;;35.49;35.45
72857;BME280;61360;52.134;4.494;2022-07-19T08:40:05;101747.69;;;35.58;34.68
72857;BME280;61360;52.134;4.494;2022-07-19T08:42:32;101745.28;;;35.55;35.86
72857;BME280;61360;52.134;4.494;2022-07-19T08:45:04;101751.19;;;35.77;34.39
72857;BME280;61360;52.134;4.494;2022-07-19T08:47:34;101749.84;;;35.98;32.67
72857;BME280;61360;52.134;4.494;2022-07-19T08:50:06;101752.63;;;36.30;32.97
72857;BME280;61360;52.134;4.494;2022-07-19T08:52:34;101746.09;;;36.31;31.76
72857;BME280;61360;52.134;4.494;2022-07-19T08:55:03;101742.69;;;36.46;31.22
72857;BME280;61360;52.134;4.494;2022-07-19T08:57:30;101736.66;;;36.59;33.05
72857;BME280;61360;52.134;4.494;2022-07-19T09:00:16;101728.97;;;36.54;31.70
72857;BME280;61360;52.134;4.494;2022-07-19T09:05:32;101729.09;;;36.77;31.50
72857;BME280;61360;52.134;4.494;2022-07-19T09:10:29;101738.81;;;36.96;28.73
72857;BME280;61360;52.134;4.494;2022-07-19T09:13:16;101732.69;;;36.86;29.66
72857;BME280;61360;52.134;4.494;2022-07-19T09:15:52;101732.72;;;37.25;29.33
72857;BME280;61360;52.134;4.494;2022-07-19T09:18:23;101737.31;;;37.33;29.26
72857;BME280;61360;52.134;4.494;2022-07-19T09:20:54;101728.75;;;37.36;29.96
72857;BME280;61360;52.134;4.494;2022-07-19T09:23:23;101733.44;;;37.11;28.57
72857;BME280;61360;52.134;4.494;2022-07-19T09:25:53;101724.56;;;37.09;27.37
72857;BME280;61360;52.134;4.494;2022-07-19T09:28:24;101723.25;;;37.36;29.37
72857;BME280;61360;52.134;4.494;2022-07-19T09:30:57;101719.41;;;37.46;31.27
72857;BME280;61360;52.134;4.494;2022-07-19T09:33:30;101720.72;;;37.58;29.18
72857;BME280;61360;52.134;4.494;2022-07-19T09:36:00;101720.09;;;37.48;27.41
72857;BME280;61360;52.134;4.494;2022-07-19T09:38:31;101719.38;;;37.54;29.07
72857;BME280;61360;52.134;4.494;2022-07-19T09:41:14;101716.47;;;37.78;26.07
72857;BME280;61360;52.134;4.494;2022-07-19T09:44:01;101717.66;;;37.84;24.34
72857;BME280;61360;52.134;4.494;2022-07-19T09:46:39;101708.84;;;37.89;27.84
72857;BME280;61360;52.134;4.494;2022-07-19T09:49:13;101712.69;;;38.26;28.62
72857;BME280;61360;52.134;4.494;2022-07-19T09:51:47;101719.78;;;38.58;28.50
72857;BME280;61360;52.134;4.494;2022-07-19T09:54:22;101710.03;;;38.70;28.26
72857;BME280;61360;52.134;4.494;2022-07-19T09:56:52;101706.81;;;38.82;26.50
72857;BME280;61360;52.134;4.494;2022-07-19T09:59:22;101708.25;;;38.63;25.45
72857;BME280;61360;52.134;4.494;2022-07-19T10:01:53;101706.00;;;38.43;29.27
72857;BME280;61360;52.134;4.494;2022-07-19T10:04:23;101701.03;;;38.91;29.27
72857;BME280;61360;52.134;4.494;2022-07-19T10:06:52;101686.56;;;39.34;25.37
72857;BME280;61360;52.134;4.494;2022-07-19T10:09:21;101689.69;;;39.68;24.07
72857;BME280;61360;52.134;4.494;2022-07-19T10:11:50;101688.97;;;39.80;23.57
72857;BME280;61360;52.134;4.494;2022-07-19T10:14:17;101687.50;;;39.63;25.22
72857;BME280;61360;52.134;4.494;2022-07-19T10:19:26;101679.50;;;39.10;23.60
72857;BME280;61360;52.134;4.494;2022-07-19T10:22:00;101674.75;;;39.55;25.58
72857;BME280;61360;52.134;4.494;2022-07-19T10:24:51;101673.44;;;39.73;22.78
72857;BME280;61360;52.134;4.494;2022-07-19T10:29:52;101669.75;;;40.09;23.13
72857;BME280;61360;52.134;4.494;2022-07-19T10:32:40;101672.78;;;40.42;24.53
72857;BME280;61360;52.134;4.494;2022-07-19T10:37:52;101668.00;;;40.29;25.57
72857;BME280;61360;52.134;4.494;2022-07-19T10:48:47;101643.66;;;40.68;23.10
72857;BME280;61360;52.134;4.494;2022-07-19T10:51:32;101642.31;;;40.57;22.32
72857;BME280;61360;52.134;4.494;2022-07-19T10:54:04;101635.75;;;40.93;21.29
72857;BME280;61360;52.134;4.494;2022-07-19T10:56:35;101648.97;;;41.18;21.08
72857;BME280;61360;52.134;4.494;2022-07-19T10:59:33;101638.56;;;41.20;22.22
72857;BME280;61360;52.134;4.494;2022-07-19T11:02:02;101641.38;;;41.26;23.22
72857;BME280;61360;52.134;4.494;2022-07-19T11:04:33;101637.81;;;41.39;25.27
72857;BME280;61360;52.134;4.494;2022-07-19T11:07:20;101632.25;;;41.26;24.15
72857;BME280;61360;52.134;4.494;2022-07-19T11:09:57;101627.63;;;41.40;20.30
72857;BME280;61360;52.134;4.494;2022-07-19T11:12:27;101631.44;;;41.52;20.92
72857;BME280;61360;52.134;4.494;2022-07-19T11:14:55;101623.38;;;41.64;19.96
72857;BME280;61360;52.134;4.494;2022-07-19T11:17:23;101624.88;;;41.86;20.01
72857;BME280;61360;52.134;4.494;2022-07-19T11:20:08;101621.28;;;41.86;21.92
72857;BME280;61360;52.134;4.494;2022-07-19T11:22:43;101623.00;;;41.87;23.16
72857;BME280;61360;52.134;4.494;2022-07-19T11:25:16;101620.41;;;41.52;22.77
72857;BME280;61360;52.134;4.494;2022-07-19T11:27:50;101625.97;;;41.92;23.63
72857;BME280;61360;52.134;4.494;2022-07-19T11:30:21;101620.19;;;42.20;22.91
72857;BME280;61360;52.134;4.494;2022-07-19T11:33:00;101617.44;;;42.20;20.70
72857;BME280;61360;52.134;4.494;2022-07-19T11:35:29;101614.47;;;42.02;21.97
72857;BME280;61360;52.134;4.494;2022-07-19T11:37:58;101608.53;;;41.52;21.09
72857;BME280;61360;52.134;4.494;2022-07-19T11:40:33;101613.41;;;41.76;23.47
72857;BME280;61360;52.134;4.494;2022-07-19T11:43:06;101612.78;;;41.81;21.05
72857;BME280;61360;52.134;4.494;2022-07-19T11:45:42;101607.25;;;41.88;21.76
72857;BME280;61360;52.134;4.494;2022-07-19T11:48:11;101609.41;;;41.85;19.48
72857;BME280;61360;52.134;4.494;2022-07-19T11:50:37;101606.59;;;41.59;22.59
72857;BME280;61360;52.134;4.494;2022-07-19T11:53:07;101600.44;;;42.03;23.03
72857;BME280;61360;52.134;4.494;2022-07-19T11:55:37;101596.44;;;41.93;22.97
72857;BME280;61360;52.134;4.494;2022-07-19T11:58:08;101596.22;;;42.14;21.18
72857;BME280;61360;52.134;4.494;2022-07-19T12:00:37;101592.34;;;42.22;21.57
72857;BME280;61360;52.134;4.494;2022-07-19T12:03:05;101583.03;;;41.90;20.74
72857;BME280;61360;52.134;4.494;2022-07-19T12:05:36;101576.00;;;41.40;21.51
72857;BME280;61360;52.134;4.494;2022-07-19T12:08:06;101577.03;;;41.19;21.95
72857;BME280;61360;52.134;4.494;2022-07-19T12:13:07;101568.56;;;41.41;22.22
72857;BME280;61360;52.134;4.494;2022-07-19T12:15:55;101570.94;;;41.77;22.21
72857;BME280;61360;52.134;4.494;2022-07-19T12:18:41;101569.03;;;41.44;22.41
72857;BME280;61360;52.134;4.494;2022-07-19T12:24:10;101561.56;;;41.31;21.66
72857;BME280;61360;52.134;4.494;2022-07-19T12:32:01;101552.84;;;42.08;24.15
72857;BME280;61360;52.134;4.494;2022-07-19T12:34:42;101551.13;;;42.20;22.32
72857;BME280;61360;52.134;4.494;2022-07-19T12:37:23;101549.31;;;42.46;21.92
72857;BME280;61360;52.134;4.494;2022-07-19T12:40:22;101552.84;;;42.08;21.88
72857;BME280;61360;52.134;4.494;2022-07-19T12:42:54;101545.34;;;42.29;19.50
72857;BME280;61360;52.134;4.494;2022-07-19T12:45:36;101549.31;;;42.46;22.44
72857;BME280;61360;52.134;4.494;2022-07-19T12:48:06;101540.06;;;42.07;21.80
72857;BME280;61360;52.134;4.494;2022-07-19T12:50:57;101535.66;;;41.93;20.04
72857;BME280;61360;52.134;4.494;2022-07-19T12:53:23;101531.97;;;42.26;21.93
72857;BME280;61360;52.134;4.494;2022-07-19T12:55:50;101529.44;;;42.17;20.70
72857;BME280;61360;52.134;4.494;2022-07-19T12:58:18;101527.16;;;42.01;21.49
72857;BME280;61360;52.134;4.494;2022-07-19T13:01:04;101527.56;;;42.18;21.87
72857;BME280;61360;52.134;4.494;2022-07-19T13:03:34;101514.38;;;42.13;20.43
72857;BME280;61360;52.134;4.494;2022-07-19T13:06:01;101515.34;;;42.39;23.21
72857;BME280;61360;52.134;4.494;2022-07-19T13:08:27;101514.09;;;42.35;20.44
72857;BME280;61360;52.134;4.494;2022-07-19T13:10:55;101511.91;;;42.50;21.81
72857;BME280;61360;52.134;4.494;2022-07-19T13:13:22;101513.34;;;42.59;21.85
72857;BME280;61360;52.134;4.494;2022-07-19T13:15:49;101519.66;;;42.28;20.59
72857;BME280;61360;52.134;4.494;2022-07-19T13:18:17;101517.47;;;42.37;21.81
72857;BME280;61360;52.134;4.494;2022-07-19T13:20:44;101504.34;;;42.26;22.00
72857;BME280;61360;52.134;4.494;2022-07-19T13:23:11;101499.13;;;42.49;20.71
72857;BME280;61360;52.134;4.494;2022-07-19T13:25:37;101497.19;;;42.50;20.10
72857;BME280;61360;52.134;4.494;2022-07-19T13:28:04;101495.34;;;42.44;20.25
72857;BME280;61360;52.134;4.494;2022-07-19T13:30:31;101496.97;;;42.13;20.73